HRYR

Kigali International Airport

Kigali, Rwanda
HRYR 141700Z 1418/1524 33006KT 9999 FEW025 SCT100 FM 142100 30004KT SCT025 SCT100 BECMG 1502/1505 00000KT 3000 BR FEW010 SCT023 FM 150800 14008KT 9999 BKN025 TEMPO 1510/1516 09010G20KT -TSRA FEW023CB BKN025 BECMG 1519/1522 30006KT SCT025 SCT100
Issued Valid From Valid To
Dec-14 @ 17:00 UTC
(5 hours ago)
Dec-14 @ 18:00 UTC
(4 hours ago)
Dec-16 @ 00:00 UTC
(-1 days ago)
Expired Click to View Dec-14 @ 18:00 to Dec-14 @ 21:00
HRYR 141700Z 1418/1524 33006KT 9999 FEW025 SCT100 FM 142100 30004KT SCT025 SCT100
Wind Visibility Clouds
330° at 6 knots 10,000+ meters
  • Few at 2,500' AGL
  • Scattered at 10,000' AGL
From Dec-14 @ 21:00 to Dec-15 @ 02:00
Wind Clouds
300° at 4 knots
  • Scattered at 2,500' AGL
  • Scattered at 10,000' AGL
Becoming Dec-15 @ 02:00 to Dec-15 @ 08:00
BECMG 1502/1505 00000KT 3000 BR FEW010 SCT023 FM 150800 14008KT 9999 BKN025
Visibility Clouds Conditions
2,993 meters
  • Few at 1,000' AGL
  • Scattered at 2,300' AGL
  • Mist
From Dec-15 @ 08:00 to Dec-15 @ 19:00
Wind Visibility Clouds
140° at 8 knots 10,000+ meters
  • Broken at 2,500' AGL
Temporary Dec-15 @ 10:00 to Dec-15 @ 16:00
TEMPO 1510/1516 09010G20KT -TSRA FEW023CB BKN025
Wind Clouds Conditions
90° at 10 knots
 Gusting to 20 knots
  • Few at 2,300' AGL
  • Broken at 2,500' AGL
  • Light Thunderstorm
  • Light Rain
Becoming Dec-15 @ 19:00 to Dec-16 @ 00:00
BECMG 1519/1522 30006KT SCT025 SCT100
Wind Visibility Clouds
300° at 6 knots 10,000+ meters
  • Scattered at 2,500' AGL
  • Scattered at 10,000' AGL
HRYR 141700Z 1418/1524 33006KT 9999 FEW025 SCT100 FM 142100 30004KT SCT025 SCT100 BECMG 1502/1505 00000KT 3000 BR FEW010 SCT023 FM 150800 14008KT 9999 BKN025 TEMPO 1510/1516 09010G20KT -TSRA FEW023CB BKN025 BECMG 1519/1522 30006KT SCT025 SCT100
Issued Dec-14 @ 17:00 UTC
(5 hours ago)
Valid From Dec-14 @ 18:00 UTC
(4 hours ago)
Valid To Dec-16 @ 00:00 UTC
(-1 days ago)
Dec-14 @ 18:00 - Dec-14 @ 21:00
Wind Visibility
330° at 6 knots 10,000+ meters
Clouds
  • Few at 2,500' AGL
  • Scattered at 10,000' AGL
From Dec-14 @ 21:00 - Dec-15 @ 02:00
Wind
300° at 4 knots
Clouds
  • Scattered at 2,500' AGL
  • Scattered at 10,000' AGL
Becoming Dec-15 @ 02:00 - Dec-15 @ 08:00
Clouds
  • Few at 1,000' AGL
  • Scattered at 2,300' AGL
Conditions
  • Mist
From Dec-15 @ 08:00 - Dec-15 @ 19:00
Wind Visibility
140° at 8 knots 10,000+ meters
Clouds
  • Broken at 2,500' AGL
Temporary Dec-15 @ 10:00 - Dec-15 @ 16:00
Wind
90° at 10 knots
 Gusting to 20 knots
Clouds
  • Few at 2,300' AGL
  • Broken at 2,500' AGL
Conditions
  • Light Thunderstorm
  • Light Rain
Becoming Dec-15 @ 19:00 - Dec-16 @ 00:00
Wind Visibility
300° at 6 knots 10,000+ meters
Clouds
  • Scattered at 2,500' AGL
  • Scattered at 10,000' AGL